Time;durP1;ratioP1;P1;durP2;ratioP2;P2;SDS_P1;SDS_P2;PMS_P1;PMS_P2;Temp;Humidity;BMP_temperature;BMP_pressure;BME280_temperature;BME280_humidity;BME280_pressure;Samples;Min_cycle;Max_cycle;Signal;HPM_P1;HPM_P2
2021/07/31 00:00:13;;;;;;;58.60;37.03;;;;;;;21.46;61.55;93143.59;5010063;28;20168;-50
2021/07/31 00:02:38;;;;;;;57.38;38.65;;;;;;;21.32;61.68;93134.50;5010066;28;20159;-49
2021/07/31 00:05:05;;;;;;;32.47;28.67;;;;;;;21.30;61.67;93142.09;5009659;28;20038;-52
2021/07/31 00:07:31;;;;;;;85.95;46.65;;;;;;;21.25;62.01;93143.97;5009577;28;20041;-51
2021/07/31 00:09:56;;;;;;;56.60;38.72;;;;;;;21.31;62.04;93140.75;5008904;28;20399;-51
2021/07/31 00:12:21;;;;;;;111.32;59.08;;;;;;;21.31;62.11;93146.34;5010056;28;20088;-52
2021/07/31 00:14:47;;;;;;;104.72;55.95;;;;;;;21.12;62.52;93116.63;5011538;28;20034;-47
2021/07/31 00:17:13;;;;;;;110.22;57.33;;;;;;;21.18;62.22;93144.31;5010041;28;20117;-49
2021/07/31 00:19:38;;;;;;;96.10;51.22;;;;;;;21.18;62.20;93138.69;5009803;28;20029;-52
2021/07/31 00:22:04;;;;;;;107.15;62.33;;;;;;;21.11;62.39;93146.78;5010356;28;20038;-50
2021/07/31 00:24:29;;;;;;;155.15;81.95;;;;;;;21.21;62.85;93143.75;5009802;28;20053;-52
2021/07/31 00:26:55;;;;;;;97.43;55.63;;;;;;;21.18;62.44;93142.19;5008077;28;20021;-47
2021/07/31 00:29:21;;;;;;;142.35;73.03;;;;;;;21.17;62.57;93137.22;5011047;28;20025;-46
2021/07/31 00:31:46;;;;;;;145.93;78.45;;;;;;;21.14;62.47;93134.31;5011124;28;20030;-50
2021/07/31 00:34:12;;;;;;;154.38;81.55;;;;;;;21.09;62.40;93138.25;5010945;28;20076;-47
2021/07/31 00:36:37;;;;;;;137.95;79.38;;;;;;;21.09;62.40;93134.75;5011147;28;20025;-48
2021/07/31 00:39:03;;;;;;;127.05;78.82;;;;;;;20.85;62.77;93134.22;5011212;28;20034;-48
2021/07/31 00:41:28;;;;;;;128.40;74.03;;;;;;;20.86;62.38;93132.84;5010838;28;20036;-47
2021/07/31 00:43:54;;;;;;;137.43;75.82;;;;;;;20.84;62.28;93126.41;5011104;28;20088;-47
2021/07/31 00:46:19;;;;;;;140.48;67.88;;;;;;;20.72;62.20;93118.13;5011020;28;20395;-47
2021/07/31 00:48:45;;;;;;;199.35;91.82;;;;;;;20.77;63.08;93135.88;5011031;28;20655;-49
2021/07/31 00:51:11;;;;;;;177.70;96.28;;;;;;;20.72;62.89;93134.22;5010972;28;20033;-48
2021/07/31 00:53:37;;;;;;;191.07;90.85;;;;;;;20.68;62.86;93123.50;5009610;28;20091;-49
2021/07/31 00:56:03;;;;;;;228.65;112.07;;;;;;;20.54;63.13;93114.38;5002336;28;20041;-50
2021/07/31 00:58:28;;;;;;;216.85;99.28;;;;;;;20.44;63.12;93102.63;4991286;28;20112;-52
2021/07/31 01:00:54;;;;;;;181.80;97.07;;;;;;;20.44;63.00;93099.09;4989863;28;20041;-51
2021/07/31 01:03:19;;;;;;;220.07;115.22;;;;;;;20.63;63.57;93121.13;5001329;28;20029;-50
2021/07/31 01:05:45;;;;;;;206.20;104.00;;;;;;;20.61;62.77;93116.13;5009596;28;20037;-51
2021/07/31 01:08:10;;;;;;;200.40;99.20;;;;;;;20.53;62.98;93118.50;5008400;28;20022;-49
2021/07/31 01:10:36;;;;;;;216.90;102.20;;;;;;;20.51;63.28;93106.47;5009458;28;20045;-50
2021/07/31 01:13:02;;;;;;;252.25;116.40;;;;;;;20.48;63.80;93111.25;5009416;28;20506;-49
2021/07/31 01:15:28;;;;;;;223.57;113.28;;;;;;;20.49;63.54;93109.19;5008049;28;20030;-50
2021/07/31 01:17:53;;;;;;;282.80;125.43;;;;;;;20.45;63.87;93111.75;5008991;28;20446;-52
2021/07/31 01:20:19;;;;;;;240.90;122.95;;;;;;;20.39;63.85;93110.09;5008754;28;20057;-51
2021/07/31 01:22:45;;;;;;;277.60;136.38;;;;;;;20.34;63.57;93102.81;5008147;28;20038;-49
2021/07/31 01:25:10;;;;;;;271.02;127.70;;;;;;;20.29;63.47;93103.94;5009370;28;20038;-50
2021/07/31 01:27:38;;;;;;;260.90;122.97;;;;;;;20.28;64.05;93108.13;5009338;28;20503;-51
2021/07/31 01:30:03;;;;;;;283.20;143.45;;;;;;;20.20;64.12;93099.28;5006769;28;20029;-49
2021/07/31 01:32:29;;;;;;;282.63;141.50;;;;;;;20.24;64.23;93102.31;5008908;28;20022;-50
2021/07/31 01:34:54;;;;;;;275.33;134.52;;;;;;;20.22;64.58;93109.88;5013038;28;20034;-49
2021/07/31 01:37:20;;;;;;;301.00;143.32;;;;;;;20.24;64.65;93107.16;5013133;28;20030;-49
2021/07/31 01:39:47;;;;;;;326.23;157.13;;;;;;;20.23;65.00;93100.09;5013267;28;20022;-50
2021/07/31 01:42:13;;;;;;;349.77;170.43;;;;;;;19.97;65.43;93079.78;5013726;28;20026;-52
2021/07/31 01:44:39;;;;;;;354.90;167.68;;;;;;;20.14;65.05;93090.50;5009435;28;20092;-49
2021/07/31 01:47:04;;;;;;;337.98;154.02;;;;;;;20.10;64.70;93095.16;5012966;28;20045;-48
2021/07/31 01:49:30;;;;;;;391.27;178.18;;;;;;;20.08;65.15;93092.25;5012665;28;20483;-50
2021/07/31 01:51:56;;;;;;;391.67;176.52;;;;;;;20.08;64.90;93103.47;5012576;28;20017;-51
2021/07/31 01:54:21;;;;;;;353.13;156.88;;;;;;;19.98;64.59;93089.66;5012996;28;20042;-48
2021/07/31 01:56:47;;;;;;;310.17;153.65;;;;;;;20.02;64.31;93092.69;5013848;28;20028;-51
2021/07/31 01:59:14;;;;;;;334.40;172.18;;;;;;;20.01;64.56;93101.72;5013806;28;20033;-48
2021/07/31 02:01:39;;;;;;;338.00;160.68;;;;;;;20.07;65.11;93099.22;5013346;28;20022;-47
2021/07/31 02:04:05;;;;;;;326.02;151.32;;;;;;;20.06;64.58;93094.97;5013720;28;20032;-50
2021/07/31 02:06:30;;;;;;;261.67;123.07;;;;;;;20.05;64.39;93099.84;5013951;28;20037;-46
2021/07/31 02:08:55;;;;;;;317.83;136.25;;;;;;;19.95;63.73;93107.69;4999945;28;20046;-47
2021/07/31 02:11:21;;;;;;;292.75;137.98;;;;;;;19.88;64.03;93108.72;5007567;28;20038;-47
2021/07/31 02:13:46;;;;;;;316.77;153.15;;;;;;;19.73;64.57;93100.19;5013641;28;20026;-48
2021/07/31 02:16:12;;;;;;;341.13;161.75;;;;;;;19.78;64.83;93094.16;5013482;28;20028;-50
2021/07/31 02:18:37;;;;;;;339.30;155.63;;;;;;;19.76;64.58;93096.13;5013660;28;20021;-49
2021/07/31 02:21:03;;;;;;;327.33;150.55;;;;;;;19.74;65.10;93090.41;5012655;28;20018;-49
2021/07/31 02:23:28;;;;;;;296.98;131.95;;;;;;;19.79;65.10;93094.91;5013173;28;20427;-50
2021/07/31 02:25:54;;;;;;;276.48;133.98;;;;;;;19.84;64.98;93099.38;5013647;28;20018;-49
2021/07/31 02:28:20;;;;;;;290.58;135.88;;;;;;;19.80;65.16;93099.88;5013618;28;20030;-49
2021/07/31 02:30:45;;;;;;;289.38;131.05;;;;;;;19.76;64.71;93096.13;5013533;28;20562;-50
2021/07/31 02:33:11;;;;;;;296.35;134.55;;;;;;;19.71;65.02;93095.19;5013164;28;20030;-48
2021/07/31 02:35:36;;;;;;;266.42;130.48;;;;;;;19.66;64.49;93087.91;5013154;28;20030;-49
2021/07/31 02:38:02;;;;;;;295.33;139.00;;;;;;;19.59;64.52;93100.84;5013420;28;20026;-50
2021/07/31 02:40:28;;;;;;;339.67;159.75;;;;;;;19.52;64.99;93092.72;5013079;28;20030;-48
2021/07/31 02:42:53;;;;;;;350.98;154.32;;;;;;;19.49;64.66;93097.47;5013008;28;20499;-48
2021/07/31 02:45:19;;;;;;;340.50;155.70;;;;;;;19.47;64.96;93105.03;5012730;28;20032;-47
2021/07/31 02:47:44;;;;;;;354.38;162.90;;;;;;;19.37;65.39;93105.22;5012951;28;20103;-47
2021/07/31 02:50:10;;;;;;;345.70;162.60;;;;;;;19.40;65.42;93101.19;5012691;28;20053;-47
2021/07/31 02:52:35;;;;;;;357.95;174.98;;;;;;;19.38;65.89;93103.84;5012724;28;20053;-46
2021/07/31 02:55:04;;;;;;;340.98;157.65;;;;;;;19.42;65.61;93108.97;5012724;28;20042;-49
2021/07/31 02:57:30;;;;;;;278.00;125.88;;;;;;;19.31;64.96;93104.84;5012752;28;20049;-48
2021/07/31 02:59:56;;;;;;;290.98;140.07;;;;;;;19.25;65.53;93107.28;5012682;28;20080;-49
2021/07/31 03:02:21;;;;;;;295.95;126.25;;;;;;;19.14;65.40;93091.28;5012458;28;20033;-48
2021/07/31 03:04:47;;;;;;;315.13;137.05;;;;;;;19.21;65.63;93104.25;5012879;28;20024;-50
2021/07/31 03:07:12;;;;;;;316.45;143.85;;;;;;;19.16;66.24;93108.19;5012854;28;20102;-49
2021/07/31 03:09:38;;;;;;;308.58;139.50;;;;;;;19.15;66.75;93120.00;5012482;28;20017;-47
2021/07/31 03:12:03;;;;;;;298.02;136.38;;;;;;;19.10;67.18;93116.22;5012240;28;20018;-47
2021/07/31 03:14:29;;;;;;;302.75;128.77;;;;;;;19.09;67.23;93117.59;5012401;28;20037;-48
2021/07/31 03:16:54;;;;;;;394.00;166.48;;;;;;;19.08;67.65;93109.81;5012299;28;20092;-49
2021/07/31 03:19:20;;;;;;;400.63;174.90;;;;;;;19.10;67.49;93107.84;5011936;28;20026;-48
2021/07/31 03:21:45;;;;;;;384.88;179.88;;;;;;;19.10;67.56;93124.63;5011530;28;20030;-49
2021/07/31 03:24:10;;;;;;;315.75;146.93;;;;;;;19.12;67.69;93119.16;5012017;28;20025;-48
2021/07/31 03:26:36;;;;;;;346.48;156.13;;;;;;;19.18;66.92;93122.31;5012041;28;20471;-49
2021/07/31 03:29:01;;;;;;;359.55;155.75;;;;;;;19.27;66.25;93121.44;5011981;28;20096;-49
2021/07/31 03:31:27;;;;;;;367.92;163.15;;;;;;;19.17;66.17;93115.25;5011858;28;20025;-50
2021/07/31 03:33:52;;;;;;;302.92;138.07;;;;;;;19.20;66.38;93128.00;5011674;28;20474;-51
2021/07/31 03:36:18;;;;;;;386.23;167.48;;;;;;;19.25;65.86;93129.69;5011950;28;20018;-51
2021/07/31 03:38:43;;;;;;;389.33;172.75;;;;;;;19.23;65.78;93126.78;5012215;28;20021;-52
2021/07/31 03:41:08;;;;;;;392.30;162.07;;;;;;;19.11;66.12;93117.69;5011960;28;20036;-50
2021/07/31 03:43:34;;;;;;;388.08;178.95;;;;;;;19.16;66.24;93125.00;5011432;28;20419;-48
2021/07/31 03:45:59;;;;;;;374.92;165.10;;;;;;;19.20;66.19;93122.41;5011490;28;20060;-46
2021/07/31 03:48:25;;;;;;;396.38;171.57;;;;;;;19.26;65.92;93131.16;5011637;28;20033;-47
2021/07/31 03:50:50;;;;;;;377.70;173.95;;;;;;;19.16;66.03;93130.59;5011698;28;20096;-49
2021/07/31 03:53:16;;;;;;;342.95;171.48;;;;;;;19.16;65.81;93124.25;5011421;28;20029;-49
2021/07/31 03:55:45;;;;;;;318.42;148.23;;;;;;;19.20;66.32;93125.22;5010603;28;20116;-48
2021/07/31 03:58:11;;;;;;;336.88;158.00;;;;;;;19.21;66.30;93120.34;5011458;28;20097;-47
2021/07/31 04:00:36;;;;;;;343.63;152.05;;;;;;;19.23;66.41;93132.38;5011393;28;20396;-47
2021/07/31 04:03:01;;;;;;;328.92;149.77;;;;;;;19.19;66.29;93129.34;5007176;28;20410;-49
2021/07/31 04:05:27;;;;;;;409.70;198.82;;;;;;;19.22;66.47;93127.41;5011350;28;20506;-51
2021/07/31 04:07:52;;;;;;;367.65;176.73;;;;;;;19.27;66.18;93129.09;5011604;28;20026;-52
2021/07/31 04:10:18;;;;;;;390.52;182.02;;;;;;;19.32;66.06;93125.91;5010579;28;20376;-48
2021/07/31 04:12:43;;;;;;;387.85;174.05;;;;;;;19.34;65.97;93128.84;5011576;28;20629;-48
2021/07/31 04:15:09;;;;;;;375.30;187.35;;;;;;;19.29;66.20;93129.94;5011304;28;20411;-50
2021/07/31 04:17:35;;;;;;;383.33;178.35;;;;;;;19.21;66.29;93109.88;5011574;28;20049;-49
2021/07/31 04:20:01;;;;;;;490.33;235.00;;;;;;;19.27;66.47;93132.63;5011127;28;20030;-48
2021/07/31 04:22:26;;;;;;;464.65;222.27;;;;;;;19.37;66.48;93138.81;5011220;28;20516;-49
2021/07/31 04:24:52;;;;;;;463.90;210.02;;;;;;;19.43;66.65;93141.22;5011100;28;20038;-49
2021/07/31 04:27:18;;;;;;;453.20;213.70;;;;;;;19.47;66.99;93133.78;5010786;28;20518;-48
2021/07/31 04:29:43;;;;;;;457.73;206.98;;;;;;;19.49;66.96;93135.97;5010297;28;20029;-49
2021/07/31 04:32:09;;;;;;;471.67;223.25;;;;;;;19.51;67.29;93134.00;5010557;28;20026;-50
2021/07/31 04:34:34;;;;;;;500.30;241.35;;;;;;;19.58;67.50;93132.25;5030531;28;20025;-50
2021/07/31 04:37:00;;;;;;;550.33;250.88;;;;;;;19.61;67.40;93134.56;5030750;28;20032;-49
2021/07/31 04:39:25;;;;;;;552.95;257.45;;;;;;;19.69;67.34;93139.88;5029782;28;20021;-48
2021/07/31 04:41:50;;;;;;;538.22;240.63;;;;;;;19.80;66.92;93135.56;5029766;28;20033;-48
2021/07/31 04:44:16;;;;;;;504.13;246.45;;;;;;;19.84;66.90;93141.41;5012197;28;20030;-49
2021/07/31 04:46:41;;;;;;;514.22;262.95;;;;;;;19.87;66.90;93140.16;5009177;28;20034;-48
2021/07/31 04:49:07;;;;;;;567.15;274.30;;;;;;;19.93;66.66;93146.09;5009387;28;20040;-49
2021/07/31 04:51:32;;;;;;;609.50;298.17;;;;;;;19.89;66.81;93141.00;5009484;28;20096;-48
2021/07/31 04:53:58;;;;;;;707.78;348.08;;;;;;;19.98;67.26;93151.31;5009546;28;20531;-48
2021/07/31 04:56:23;;;;;;;661.10;327.13;;;;;;;20.05;67.34;93150.31;5009796;28;20021;-48
2021/07/31 04:58:49;;;;;;;668.35;338.17;;;;;;;20.13;67.60;93161.22;5010923;28;20032;-50
2021/07/31 05:01:14;;;;;;;750.33;349.73;;;;;;;20.17;67.78;93159.34;5010599;28;20030;-48
2021/07/31 05:03:39;;;;;;;758.15;357.75;;;;;;;20.19;67.93;93151.06;5010504;28;20030;-47
2021/07/31 05:06:08;;;;;;;777.35;392.02;;;;;;;20.26;67.85;93154.94;5010847;28;20026;-48
2021/07/31 05:08:33;;;;;;;804.75;382.98;;;;;;;20.30;67.63;93157.94;5010644;28;20427;-47
2021/07/31 05:11:05;;;;;;;852.80;408.63;;;;;;;20.33;67.89;93159.53;5010709;28;20033;-48
2021/07/31 05:13:30;;;;;;;805.13;410.65;;;;;;;20.51;68.41;93154.16;5010380;28;20506;-48
2021/07/31 05:15:56;;;;;;;790.05;399.60;;;;;;;20.58;68.20;93156.66;5010628;28;20034;-50
2021/07/31 05:18:21;;;;;;;894.22;433.17;;;;;;;20.67;67.35;93150.13;5010362;28;20565;-48
2021/07/31 05:20:47;;;;;;;1022.63;471.80;;;;;;;20.68;68.30;93159.97;5010059;28;20029;-49
2021/07/31 05:23:13;;;;;;;937.13;467.38;;;;;;;20.84;67.61;93160.09;5010227;28;20061;-48
2021/07/31 05:25:44;;;;;;;906.60;473.65;;;;;;;20.93;68.12;93159.16;5010589;28;20034;-50
2021/07/31 05:28:10;;;;;;;992.33;483.48;;;;;;;21.02;67.71;93153.34;5010317;28;20025;-51
2021/07/31 05:30:38;;;;;;;1042.22;514.58;;;;;;;21.12;68.13;93159.47;5010588;28;20041;-48
2021/07/31 05:33:04;;;;;;;985.80;500.55;;;;;;;21.30;67.84;93164.56;5010103;28;20072;-54
2021/07/31 05:35:29;;;;;;;1059.18;508.42;;;;;;;21.39;67.42;93157.97;5010253;28;20065;-52
2021/07/31 05:37:54;;;;;;;972.10;481.73;;;;;;;21.49;66.47;93166.91;5010229;28;20029;-47
2021/07/31 05:40:20;;;;;;;853.00;420.65;;;;;;;21.60;64.96;93166.78;5010139;28;20088;-47
2021/07/31 05:42:45;;;;;;;889.38;449.65;;;;;;;21.65;65.88;93162.81;5010151;28;20029;-47
2021/07/31 05:45:11;;;;;;;706.00;370.10;;;;;;;21.74;64.50;93166.75;5010362;28;20033;-48
2021/07/31 05:47:36;;;;;;;816.25;424.98;;;;;;;21.77;65.14;93169.00;5010169;28;20113;-48
2021/07/31 05:50:05;;;;;;;792.45;414.92;;;;;;;21.81;65.04;93174.81;5010265;28;20056;-48
2021/07/31 05:52:31;;;;;;;720.90;370.50;;;;;;;21.89;64.44;93174.53;5010202;28;20048;-49
2021/07/31 05:54:56;;;;;;;834.92;437.25;;;;;;;21.90;64.56;93173.16;5009959;28;20034;-48
2021/07/31 05:57:22;;;;;;;818.00;426.52;;;;;;;21.99;64.05;93180.63;5010222;28;20032;-49
2021/07/31 05:59:48;;;;;;;812.33;438.67;;;;;;;22.15;64.10;93169.41;5008766;28;20025;-48
2021/07/31 06:02:14;;;;;;;837.15;432.20;;;;;;;22.31;63.88;93173.69;5009816;28;20392;-48
2021/07/31 06:04:40;;;;;;;943.55;498.17;;;;;;;22.34;64.56;93164.00;5009880;28;20038;-50
2021/07/31 06:07:10;;;;;;;934.08;486.15;;;;;;;22.47;64.56;93174.44;5010210;28;20037;-50
2021/07/31 06:09:36;;;;;;;748.58;416.90;;;;;;;22.63;63.72;93173.75;5009920;28;20492;-49
2021/07/31 06:12:03;;;;;;;872.78;488.67;;;;;;;22.73;63.58;93172.13;5009705;28;20040;-48
2021/07/31 06:14:28;;;;;;;752.83;423.77;;;;;;;22.86;63.63;93162.84;5010132;28;20125;-50
2021/07/31 06:16:54;;;;;;;853.70;470.55;;;;;;;23.00;63.45;93160.63;5010183;28;20642;-48
2021/07/31 06:19:20;;;;;;;720.97;406.02;;;;;;;23.11;63.21;93164.63;5010809;28;20399;-49
2021/07/31 06:21:45;;;;;;;491.00;283.85;;;;;;;23.34;62.76;93164.25;5012777;28;20046;-50
2021/07/31 06:24:11;;;;;;;255.60;153.88;;;;;;;23.54;60.87;93159.44;5013219;28;20048;-50
2021/07/31 06:26:36;;;;;;;143.52;85.90;;;;;;;23.70;60.23;93165.75;5013367;28;20025;-50
2021/07/31 06:29:02;;;;;;;92.22;63.17;;;;;;;23.71;59.99;93161.56;5013600;28;20030;-48
2021/07/31 06:31:27;;;;;;;63.83;43.22;;;;;;;23.85;60.29;93159.31;5013481;28;20430;-50
2021/07/31 06:33:52;;;;;;;26.65;17.10;;;;;;;23.95;58.33;93156.88;5013516;28;20505;-49
2021/07/31 06:36:19;;;;;;;23.08;13.88;;;;;;;24.01;57.47;93157.16;5013188;28;20495;-49
2021/07/31 06:38:45;;;;;;;33.80;14.05;;;;;;;24.09;56.65;93154.66;5013216;28;20061;-50
2021/07/31 06:41:10;;;;;;;34.28;11.70;;;;;;;24.22;54.89;93155.13;5013086;28;20605;-50
2021/07/31 06:43:36;;;;;;;15.57;9.85;;;;;;;24.31;55.97;93149.16;5013319;28;20018;-53
2021/07/31 06:46:18;;;;;;;30.63;11.50;;;;;;;24.58;57.74;93145.25;5013172;28;20040;-49
2021/07/31 06:48:44;;;;;;;21.75;10.50;;;;;;;24.89;54.14;93156.28;5012979;28;20494;-49
2021/07/31 06:51:10;;;;;;;26.95;10.85;;;;;;;25.11;53.74;93154.28;5013111;28;20033;-49
2021/07/31 06:53:36;;;;;;;20.50;10.75;;;;;;;25.16;55.17;93153.06;5012990;28;20017;-49
2021/07/31 06:56:03;;;;;;;32.33;11.15;;;;;;;25.41;54.29;93146.13;5012692;28;20038;-51
2021/07/31 06:58:28;;;;;;;44.63;11.38;;;;;;;25.49;50.65;93135.84;5012585;28;20017;-49
2021/07/31 07:00:54;;;;;;;17.35;9.73;;;;;;;25.76;50.45;93150.84;5011800;28;20473;-49
2021/07/31 07:03:19;;;;;;;16.38;9.38;;;;;;;25.85;50.70;93146.91;5011753;28;20021;-54
2021/07/31 07:05:45;;;;;;;20.13;10.38;;;;;;;25.92;50.25;93143.66;4993394;28;20105;-53
2021/07/31 07:08:10;;;;;;;18.90;8.10;;;;;;;26.16;49.03;93140.88;4993026;28;20750;-51
2021/07/31 07:10:36;;;;;;;18.00;8.68;;;;;;;26.27;48.16;93136.97;4999399;28;20030;-52
2021/07/31 07:13:01;;;;;;;27.20;9.85;;;;;;;26.46;49.60;93139.00;4999999;28;20061;-54
2021/07/31 07:15:28;;;;;;;25.95;9.82;;;;;;;26.41;50.06;93143.06;4993074;28;20026;-50
2021/07/31 07:17:57;;;;;;;30.10;11.48;;;;;;;26.51;49.61;93134.88;4993126;28;20077;-51
2021/07/31 07:20:26;;;;;;;22.15;9.63;;;;;;;26.70;48.55;93141.81;4997589;28;20411;-51
2021/07/31 07:22:51;;;;;;;18.50;9.23;;;;;;;26.89;47.34;93143.81;5012184;28;20115;-51
2021/07/31 07:25:18;;;;;;;25.17;9.85;;;;;;;26.95;51.24;93136.22;5012296;28;20488;-51
2021/07/31 07:27:43;;;;;;;34.22;9.98;;;;;;;27.20;47.99;93131.22;5012145;28;20025;-53
2021/07/31 07:30:09;;;;;;;17.30;8.63;;;;;;;27.44;47.63;93141.09;5012439;28;20080;-50
2021/07/31 07:32:35;;;;;;;25.27;9.60;;;;;;;27.66;47.31;93132.44;5012263;28;20030;-51
2021/07/31 07:35:01;;;;;;;23.38;9.82;;;;;;;27.72;47.33;93138.31;5011905;28;20099;-51
2021/07/31 07:37:26;;;;;;;18.13;9.05;;;;;;;28.10;45.10;93136.44;5012341;28;20034;-53
2021/07/31 07:39:52;;;;;;;24.88;9.90;;;;;;;28.29;44.95;93131.91;5012216;28;20410;-53
2021/07/31 07:42:18;;;;;;;17.58;9.25;;;;;;;28.47;44.94;93127.38;5009387;28;20384;-54
2021/07/31 07:44:45;;;;;;;20.27;9.02;;;;;;;28.84;44.04;93122.50;5009378;28;20057;-54
2021/07/31 07:47:10;;;;;;;32.55;9.80;;;;;;;29.28;44.38;93123.41;5009691;28;20026;-53
2021/07/31 07:49:36;;;;;;;26.40;9.27;;;;;;;29.67;42.95;93122.69;5009312;28;20470;-52
2021/07/31 07:52:03;;;;;;;25.27;9.00;;;;;;;30.21;41.53;93127.91;5009589;28;20025;-51
2021/07/31 07:54:29;;;;;;;20.88;8.23;;;;;;;30.75;41.09;93120.19;5009084;28;20045;-54
2021/07/31 07:56:55;;;;;;;18.27;8.63;;;;;;;31.01;38.05;93123.44;5009148;28;20033;-50
2021/07/31 07:59:21;;;;;;;15.70;7.93;;;;;;;31.43;40.89;93126.06;5009323;28;20033;-52
2021/07/31 08:01:46;;;;;;;17.65;8.15;;;;;;;31.78;37.83;93122.16;5009008;28;20032;-51
2021/07/31 08:04:12;;;;;;;14.60;7.32;;;;;;;31.90;36.99;93127.28;5009290;28;20079;-52
2021/07/31 08:06:38;;;;;;;19.33;7.72;;;;;;;32.02;34.49;93118.84;5001731;28;20041;-55
2021/07/31 08:09:03;;;;;;;21.88;8.73;;;;;;;32.24;34.92;93129.75;4998141;28;20396;-51
2021/07/31 08:11:29;;;;;;;19.05;8.40;;;;;;;32.37;35.99;93125.56;5008403;28;20034;-52
2021/07/31 08:13:54;;;;;;;12.45;7.50;;;;;;;32.12;35.01;93127.50;5001515;28;20037;-53
2021/07/31 08:16:20;;;;;;;33.55;8.55;;;;;;;32.56;35.81;93118.56;5009358;28;20029;-52
2021/07/31 08:18:45;;;;;;;25.27;8.95;;;;;;;33.33;34.63;93120.44;4994575;28;20026;-53
2021/07/31 08:21:10;;;;;;;37.80;9.45;;;;;;;34.14;31.96;93118.53;5000468;28;20499;-51
2021/07/31 08:23:36;;;;;;;35.08;9.60;;;;;;;34.74;30.34;93111.34;5008567;28;20056;-51
2021/07/31 08:26:03;;;;;;;34.45;9.75;;;;;;;35.55;30.21;93109.69;5008646;28;20096;-53
2021/07/31 08:28:29;;;;;;;18.05;7.80;;;;;;;36.48;29.08;93112.69;5009120;28;20032;-51
2021/07/31 08:30:54;;;;;;;26.58;7.95;;;;;;;37.05;26.63;93107.13;5008902;28;20109;-55
2021/07/31 08:33:20;;;;;;;26.27;8.05;;;;;;;37.36;26.75;93113.28;5008647;28;20030;-55
2021/07/31 08:35:45;;;;;;;20.85;7.78;;;;;;;37.50;25.31;93118.16;5008694;28;20500;-52
2021/07/31 08:38:11;;;;;;;17.50;7.82;;;;;;;36.30;26.47;93112.13;5008763;28;20133;-50
2021/07/31 08:40:36;;;;;;;23.80;7.60;;;;;;;36.24;28.63;93118.63;5007819;28;20097;-54
2021/07/31 08:43:02;;;;;;;23.98;8.10;;;;;;;36.63;27.64;93107.53;5008641;28;20034;-56
2021/07/31 08:45:27;;;;;;;16.25;7.00;;;;;;;37.12;27.01;93111.38;5008815;28;20025;-56
2021/07/31 08:47:53;;;;;;;19.35;7.25;;;;;;;36.81;25.31;93103.75;5008290;28;20030;-56
2021/07/31 08:50:22;;;;;;;21.02;7.88;;;;;;;36.36;25.74;93120.69;5008825;28;20025;-55
2021/07/31 08:52:48;;;;;;;14.70;7.18;;;;;;;36.15;26.96;93111.50;5009518;28;20491;-55
2021/07/31 08:55:14;;;;;;;17.70;7.93;;;;;;;36.55;27.04;93107.59;5009509;28;20034;-54
2021/07/31 08:57:39;;;;;;;22.67;8.98;;;;;;;36.06;28.43;93107.25;5010883;28;20101;-54
2021/07/31 09:00:06;;;;;;;19.83;7.97;;;;;;;36.16;28.02;93115.81;5010995;28;20040;-51
2021/07/31 09:02:48;;;;;;;24.75;8.23;;;;;;;37.09;27.20;93107.09;5009586;28;20024;-53
2021/07/31 09:05:31;;;;;;;19.48;7.53;;;;;;;36.59;25.79;93101.09;5010808;28;20084;-54
2021/07/31 09:08:04;;;;;;;31.00;8.27;;;;;;;37.19;25.91;93106.25;5010894;28;20021;-51
2021/07/31 09:10:30;;;;;;;26.48;8.30;;;;;;;38.00;26.05;93103.09;5010786;28;20029;-54
2021/07/31 09:13:04;;;;;;;15.13;8.25;;;;;;;38.41;24.76;93100.31;5010410;28;20017;-52
2021/07/31 09:15:47;;;;;;;19.08;8.35;;;;;;;39.21;23.55;93098.94;5010755;28;20446;-52
2021/07/31 09:18:30;;;;;;;16.08;8.05;;;;;;;39.72;22.96;93101.53;5010429;28;20117;-53
2021/07/31 09:21:01;;;;;;;14.32;6.78;;;;;;;39.71;22.42;93096.50;5010405;28;20018;-55
2021/07/31 09:23:45;;;;;;;17.85;7.55;;;;;;;39.59;21.85;93093.88;5010170;28;20034;-50
2021/07/31 09:26:25;;;;;;;46.88;10.48;;;;;;;38.55;23.21;93095.03;5010685;28;20034;-54
2021/07/31 09:29:02;;;;;;;24.45;8.45;;;;;;;37.80;24.63;93103.38;5010182;28;20108;-54
2021/07/31 09:31:28;;;;;;;19.55;9.98;;;;;;;37.12;24.99;93104.91;5010648;28;20029;-55
2021/07/31 09:33:56;;;;;;;20.00;8.63;;;;;;;36.55;26.83;93113.34;5010227;28;20042;-51
2021/07/31 09:36:22;;;;;;;23.20;8.68;;;;;;;36.10;26.79;93106.50;5010263;28;20025;-53
2021/07/31 09:38:49;;;;;;;16.35;9.40;;;;;;;35.67;28.21;93100.31;4996381;28;20026;-53
2021/07/31 09:41:24;;;;;;;23.88;8.43;;;;;;;35.14;27.93;93108.41;4990608;28;20033;-52
2021/07/31 09:44:04;;;;;;;17.90;8.95;;;;;;;34.76;29.80;93100.56;4990928;28;20030;-55
2021/07/31 09:46:34;;;;;;;18.58;7.65;;;;;;;35.16;29.35;93093.31;4990902;28;20054;-51
2021/07/31 09:49:00;;;;;;;17.77;8.15;;;;;;;35.84;27.48;93092.28;4990622;28;20026;-54
2021/07/31 09:51:40;;;;;;;15.68;7.55;;;;;;;35.54;28.06;93093.88;4990772;28;20381;-53
2021/07/31 09:54:09;;;;;;;22.75;8.60;;;;;;;35.08;28.19;93094.06;4991312;28;20093;-50
2021/07/31 09:56:44;;;;;;;16.95;8.23;;;;;;;34.59;28.90;93084.13;4994615;28;20033;-53
2021/07/31 09:59:11;;;;;;;20.50;8.73;;;;;;;34.49;29.15;93081.25;4994088;28;20165;-53
2021/07/31 10:01:40;;;;;;;18.45;8.05;;;;;;;35.11;29.69;93078.25;4994043;28;20030;-53
2021/07/31 10:04:06;;;;;;;22.08;8.48;;;;;;;35.79;27.67;93082.97;4995737;28;20526;-52
2021/07/31 10:06:32;;;;;;;17.55;9.13;;;;;;;35.46;29.28;93068.06;5014026;28;20069;-54
2021/07/31 10:08:59;;;;;;;19.42;8.10;;;;;;;35.60;27.06;93079.50;5013908;28;20022;-51
2021/07/31 10:11:26;;;;;;;30.88;9.45;;;;;;;35.75;28.10;93083.72;5013744;28;20490;-53
2021/07/31 10:13:52;;;;;;;20.45;9.60;;;;;;;35.60;28.60;93078.78;5013616;28;20055;-54
2021/07/31 10:16:18;;;;;;;25.33;11.65;;;;;;;35.42;29.88;93073.09;5013863;28;20100;-54
2021/07/31 10:19:13;;;;;;;18.88;8.32;;;;;;;35.13;31.38;93068.94;5013497;28;20022;-54
2021/07/31 10:21:41;;;;;;;15.27;8.63;;;;;;;34.70;29.38;93066.19;5012428;28;20042;-53
2021/07/31 10:24:07;;;;;;;20.67;8.60;;;;;;;34.29;30.78;93061.91;5013589;28;20400;-55
2021/07/31 10:26:37;;;;;;;21.92;8.68;;;;;;;33.99;31.42;93045.44;5013647;28;20072;-54
2021/07/31 10:29:27;;;;;;;20.13;9.10;;;;;;;33.92;31.43;93066.91;5013094;28;20040;-55
2021/07/31 10:31:54;;;;;;;21.10;9.55;;;;;;;33.87;32.47;93059.03;5013151;28;20040;-54
2021/07/31 10:34:46;;;;;;;18.23;8.48;;;;;;;33.97;31.30;93056.88;5013229;28;20022;-55
2021/07/31 10:37:45;;;;;;;17.90;8.27;;;;;;;35.24;29.87;93056.00;4994082;28;20594;-55
2021/07/31 10:40:13;;;;;;;18.70;7.45;;;;;;;36.50;28.23;93058.03;4971310;28;20096;-55
2021/07/31 10:42:47;;;;;;;16.30;7.90;;;;;;;37.30;27.19;93049.97;4993853;28;20400;-55
2021/07/31 10:45:15;;;;;;;16.00;8.25;;;;;;;37.72;25.94;93055.19;4993457;28;20030;-55
2021/07/31 10:47:42;;;;;;;18.48;7.50;;;;;;;38.54;25.97;93052.50;4993341;28;20034;-54
2021/07/31 10:50:23;;;;;;;16.08;7.97;;;;;;;39.61;23.15;93044.72;4993396;28;20037;-50
2021/07/31 10:52:56;;;;;;;29.52;8.50;;;;;;;40.20;24.13;93038.31;5003473;28;20131;-54
2021/07/31 10:55:23;;;;;;;50.50;10.85;;;;;;;40.72;22.80;93049.28;4995392;28;20041;-55
2021/07/31 10:57:57;;;;;;;42.55;8.98;;;;;;;40.87;21.49;93043.88;4992310;28;20026;-55
2021/07/31 11:00:26;;;;;;;12.35;6.75;;;;;;;41.38;22.52;93041.03;4993463;28;20105;-51
2021/07/31 11:02:53;;;;;;;24.98;7.80;;;;;;;41.47;22.04;93035.69;4993332;28;20030;-54
2021/07/31 11:05:19;;;;;;;19.20;7.57;;;;;;;41.80;21.16;93033.25;4992754;28;20026;-54
2021/07/31 11:07:56;;;;;;;14.25;7.18;;;;;;;41.65;21.24;93028.66;4993273;28;20027;-50
2021/07/31 11:10:30;;;;;;;32.97;7.88;;;;;;;41.82;20.94;93024.53;4998474;28;20026;-52